sensor_id;sensor_type;location;lat;lon;timestamp;P1;durP1;ratioP1;P2;durP2;ratioP2
65063;SDS011;51654;51.452;6.644;2023-12-14T04:32:57;32.30;;;14.23;;
65063;SDS011;51654;51.452;6.644;2023-12-14T13:54:10;8.93;;;5.93;;
65063;SDS011;51654;51.452;6.644;2023-12-14T14:01:34;7.10;;;5.43;;
65063;SDS011;51654;51.452;6.644;2023-12-14T14:04:01;6.35;;;5.55;;
65063;SDS011;51654;51.452;6.644;2023-12-14T14:11:23;12.47;;;6.53;;
65063;SDS011;51654;51.452;6.644;2023-12-14T14:13:50;6.47;;;5.17;;
65063;SDS011;51654;51.452;6.644;2023-12-14T14:16:18;9.37;;;5.77;;
65063;SDS011;51654;51.452;6.644;2023-12-14T14:18:50;8.40;;;5.93;;
65063;SDS011;51654;51.452;6.644;2023-12-14T14:21:17;9.87;;;6.23;;
65063;SDS011;51654;51.452;6.644;2023-12-14T14:23:45;11.57;;;6.20;;
65063;SDS011;51654;51.452;6.644;2023-12-14T14:26:12;8.43;;;6.37;;
65063;SDS011;51654;51.452;6.644;2023-12-14T15:03:06;18.67;;;9.23;;
65063;SDS011;51654;51.452;6.644;2023-12-14T17:13:38;16.53;;;10.00;;
65063;SDS011;51654;51.452;6.644;2023-12-14T17:16:12;16.07;;;8.70;;
65063;SDS011;51654;51.452;6.644;2023-12-14T17:18:39;17.63;;;9.17;;
65063;SDS011;51654;51.452;6.644;2023-12-14T17:21:20;20.43;;;9.10;;
65063;SDS011;51654;51.452;6.644;2023-12-14T17:23:48;24.83;;;12.47;;
65063;SDS011;51654;51.452;6.644;2023-12-14T17:26:16;36.73;;;17.90;;
65063;SDS011;51654;51.452;6.644;2023-12-14T17:28:44;35.03;;;15.77;;
65063;SDS011;51654;51.452;6.644;2023-12-14T17:31:12;48.77;;;18.77;;
65063;SDS011;51654;51.452;6.644;2023-12-14T17:33:39;35.63;;;14.83;;
65063;SDS011;51654;51.452;6.644;2023-12-14T17:36:07;48.30;;;21.93;;
65063;SDS011;51654;51.452;6.644;2023-12-14T17:38:35;22.33;;;12.60;;
65063;SDS011;51654;51.452;6.644;2023-12-14T17:41:02;23.33;;;10.03;;
65063;SDS011;51654;51.452;6.644;2023-12-14T17:46:01;25.10;;;10.00;;
65063;SDS011;51654;51.452;6.644;2023-12-14T17:51:01;19.63;;;10.07;;
65063;SDS011;51654;51.452;6.644;2023-12-14T19:17:14;20.50;;;11.53;;
65063;SDS011;51654;51.452;6.644;2023-12-14T19:19:42;19.65;;;10.40;;
65063;SDS011;51654;51.452;6.644;2023-12-14T19:22:09;14.20;;;9.30;;
65063;SDS011;51654;51.452;6.644;2023-12-14T19:24:38;18.90;;;10.23;;
65063;SDS011;51654;51.452;6.644;2023-12-14T19:27:07;17.83;;;10.10;;
65063;SDS011;51654;51.452;6.644;2023-12-14T19:36:56;21.70;;;11.23;;
65063;SDS011;51654;51.452;6.644;2023-12-14T19:39:24;25.00;;;12.43;;
65063;SDS011;51654;51.452;6.644;2023-12-14T19:41:52;25.30;;;12.17;;
65063;SDS011;51654;51.452;6.644;2023-12-14T19:44:19;28.80;;;13.80;;
65063;SDS011;51654;51.452;6.644;2023-12-14T19:46:47;23.93;;;12.53;;
65063;SDS011;51654;51.452;6.644;2023-12-14T19:49:15;18.43;;;11.10;;
65063;SDS011;51654;51.452;6.644;2023-12-14T19:51:42;20.00;;;10.87;;
65063;SDS011;51654;51.452;6.644;2023-12-14T19:54:10;20.67;;;11.27;;
65063;SDS011;51654;51.452;6.644;2023-12-14T19:56:37;21.83;;;11.83;;
65063;SDS011;51654;51.452;6.644;2023-12-14T19:59:04;20.17;;;10.77;;
65063;SDS011;51654;51.452;6.644;2023-12-14T20:01:32;16.30;;;10.00;;
65063;SDS011;51654;51.452;6.644;2023-12-14T20:03:59;19.70;;;11.03;;
65063;SDS011;51654;51.452;6.644;2023-12-14T20:06:27;22.50;;;11.27;;
65063;SDS011;51654;51.452;6.644;2023-12-14T20:08:54;23.20;;;12.17;;
65063;SDS011;51654;51.452;6.644;2023-12-14T20:11:22;24.17;;;11.53;;
65063;SDS011;51654;51.452;6.644;2023-12-14T20:13:49;19.63;;;10.57;;
65063;SDS011;51654;51.452;6.644;2023-12-14T20:16:17;20.27;;;11.17;;
65063;SDS011;51654;51.452;6.644;2023-12-14T20:18:44;21.23;;;11.53;;
65063;SDS011;51654;51.452;6.644;2023-12-14T20:21:12;18.90;;;10.77;;
65063;SDS011;51654;51.452;6.644;2023-12-14T20:23:39;20.70;;;10.83;;
65063;SDS011;51654;51.452;6.644;2023-12-14T20:26:07;25.03;;;11.57;;
65063;SDS011;51654;51.452;6.644;2023-12-14T20:28:35;15.80;;;10.00;;
65063;SDS011;51654;51.452;6.644;2023-12-14T20:31:02;18.60;;;10.23;;
65063;SDS011;51654;51.452;6.644;2023-12-14T20:33:30;25.97;;;12.97;;
65063;SDS011;51654;51.452;6.644;2023-12-14T20:35:57;19.30;;;11.37;;
65063;SDS011;51654;51.452;6.644;2023-12-14T20:38:25;27.27;;;9.37;;
65063;SDS011;51654;51.452;6.644;2023-12-14T20:40:52;21.07;;;9.97;;
65063;SDS011;51654;51.452;6.644;2023-12-14T20:43:20;19.03;;;10.60;;
65063;SDS011;51654;51.452;6.644;2023-12-14T20:45:47;22.23;;;12.00;;
65063;SDS011;51654;51.452;6.644;2023-12-14T20:48:15;20.33;;;10.73;;
65063;SDS011;51654;51.452;6.644;2023-12-14T20:50:42;28.03;;;12.87;;
65063;SDS011;51654;51.452;6.644;2023-12-14T20:53:09;18.67;;;10.13;;
65063;SDS011;51654;51.452;6.644;2023-12-14T20:55:37;23.67;;;11.40;;
65063;SDS011;51654;51.452;6.644;2023-12-14T20:58:04;21.87;;;11.17;;
65063;SDS011;51654;51.452;6.644;2023-12-14T21:00:33;20.47;;;11.70;;
65063;SDS011;51654;51.452;6.644;2023-12-14T21:03:01;18.67;;;10.87;;
65063;SDS011;51654;51.452;6.644;2023-12-14T21:05:28;21.77;;;11.87;;
65063;SDS011;51654;51.452;6.644;2023-12-14T21:08:11;16.63;;;10.10;;
65063;SDS011;51654;51.452;6.644;2023-12-14T21:10:38;20.97;;;11.47;;
65063;SDS011;51654;51.452;6.644;2023-12-14T21:13:05;20.03;;;11.53;;
65063;SDS011;51654;51.452;6.644;2023-12-14T21:15:33;25.67;;;10.93;;
65063;SDS011;51654;51.452;6.644;2023-12-14T21:18:00;17.23;;;9.97;;
65063;SDS011;51654;51.452;6.644;2023-12-14T21:20:28;23.97;;;11.17;;
65063;SDS011;51654;51.452;6.644;2023-12-14T21:22:55;23.87;;;11.83;;
65063;SDS011;51654;51.452;6.644;2023-12-14T21:25:23;27.20;;;12.00;;
65063;SDS011;51654;51.452;6.644;2023-12-14T21:28:04;28.90;;;12.80;;
65063;SDS011;51654;51.452;6.644;2023-12-14T21:30:31;26.63;;;12.33;;
65063;SDS011;51654;51.452;6.644;2023-12-14T21:33:00;21.73;;;11.83;;
65063;SDS011;51654;51.452;6.644;2023-12-14T21:35:28;20.07;;;9.57;;
65063;SDS011;51654;51.452;6.644;2023-12-14T21:37:55;26.50;;;11.33;;
65063;SDS011;51654;51.452;6.644;2023-12-14T21:40:22;18.00;;;9.60;;
65063;SDS011;51654;51.452;6.644;2023-12-14T21:42:50;23.93;;;11.00;;
65063;SDS011;51654;51.452;6.644;2023-12-14T21:45:17;21.10;;;12.10;;
65063;SDS011;51654;51.452;6.644;2023-12-14T21:47:45;22.33;;;11.53;;
65063;SDS011;51654;51.452;6.644;2023-12-14T21:50:12;21.90;;;12.53;;
65063;SDS011;51654;51.452;6.644;2023-12-14T21:52:40;26.73;;;12.47;;
65063;SDS011;51654;51.452;6.644;2023-12-14T21:55:07;23.40;;;12.23;;
65063;SDS011;51654;51.452;6.644;2023-12-14T21:57:35;14.33;;;8.70;;
65063;SDS011;51654;51.452;6.644;2023-12-14T22:00:02;23.70;;;11.73;;
65063;SDS011;51654;51.452;6.644;2023-12-14T22:02:30;25.07;;;11.20;;
65063;SDS011;51654;51.452;6.644;2023-12-14T22:04:57;22.63;;;12.33;;
65063;SDS011;51654;51.452;6.644;2023-12-14T22:07:25;21.13;;;11.70;;
65063;SDS011;51654;51.452;6.644;2023-12-14T22:09:52;25.93;;;10.77;;
65063;SDS011;51654;51.452;6.644;2023-12-14T22:12:19;51.07;;;15.50;;
65063;SDS011;51654;51.452;6.644;2023-12-14T22:14:47;44.67;;;15.10;;
65063;SDS011;51654;51.452;6.644;2023-12-14T22:17:14;18.23;;;10.80;;
65063;SDS011;51654;51.452;6.644;2023-12-14T22:19:42;53.87;;;15.43;;
65063;SDS011;51654;51.452;6.644;2023-12-14T22:22:10;37.97;;;13.47;;
65063;SDS011;51654;51.452;6.644;2023-12-14T22:24:37;29.07;;;12.77;;
65063;SDS011;51654;51.452;6.644;2023-12-14T22:27:05;28.40;;;14.33;;
65063;SDS011;51654;51.452;6.644;2023-12-14T22:29:32;48.67;;;17.23;;
65063;SDS011;51654;51.452;6.644;2023-12-14T22:32:01;22.37;;;12.27;;
65063;SDS011;51654;51.452;6.644;2023-12-14T22:34:28;25.50;;;11.73;;
65063;SDS011;51654;51.452;6.644;2023-12-14T22:36:56;21.53;;;11.50;;
65063;SDS011;51654;51.452;6.644;2023-12-14T22:39:23;60.87;;;15.23;;
65063;SDS011;51654;51.452;6.644;2023-12-14T22:41:50;24.97;;;12.37;;
65063;SDS011;51654;51.452;6.644;2023-12-14T22:44:17;33.80;;;12.33;;
65063;SDS011;51654;51.452;6.644;2023-12-14T22:46:45;20.23;;;11.37;;
65063;SDS011;51654;51.452;6.644;2023-12-14T22:49:12;27.97;;;12.87;;
65063;SDS011;51654;51.452;6.644;2023-12-14T22:51:39;31.20;;;13.40;;
65063;SDS011;51654;51.452;6.644;2023-12-14T22:54:07;38.10;;;13.73;;
65063;SDS011;51654;51.452;6.644;2023-12-14T22:56:34;30.63;;;13.33;;
65063;SDS011;51654;51.452;6.644;2023-12-14T22:59:02;77.90;;;23.07;;
65063;SDS011;51654;51.452;6.644;2023-12-14T23:01:30;45.10;;;17.53;;
65063;SDS011;51654;51.452;6.644;2023-12-14T23:03:58;135.37;;;32.07;;
65063;SDS011;51654;51.452;6.644;2023-12-14T23:06:26;131.33;;;35.10;;
65063;SDS011;51654;51.452;6.644;2023-12-14T23:08:53;193.67;;;45.97;;
65063;SDS011;51654;51.452;6.644;2023-12-14T23:11:21;121.83;;;28.90;;
65063;SDS011;51654;51.452;6.644;2023-12-14T23:13:48;187.15;;;38.50;;
65063;SDS011;51654;51.452;6.644;2023-12-14T23:16:16;28.53;;;14.30;;
65063;SDS011;51654;51.452;6.644;2023-12-14T23:33:27;20.30;;;10.55;;
65063;SDS011;51654;51.452;6.644;2023-12-14T23:38:22;27.90;;;12.90;;
65063;SDS011;51654;51.452;6.644;2023-12-14T23:40:50;76.50;;;19.80;;
